This is the latest recevied weather packets stored in our database for station/object CA4LJZ-10. If no packets are shown the sender has not sent any weather packets the latest 10 day(s).
| Time | Temp. | Humidity | Pressure | Rain* | Wind** | Luminosity | Snow |
|---|---|---|---|---|---|---|---|
| 1777943772 | 17.22° C | 42% | 952.5 hPa | - | - | - | - |
| 1777941068 | 17.22° C | 43% | 952.6 hPa | - | - | - | - |
| 1777923975 | 21.11° C | 34% | 952.8 hPa | - | - | - | - |
| 1777923074 | 21.11° C | 35% | 952.8 hPa | - | - | - | - |
| 1777922173 | 21.11° C | 37% | 953 hPa | - | - | - | - |
| 1777915867 | 20.56° C | 36% | 953.9 hPa | - | - | - | - |
| 1777912258 | 20° C | 38% | 954.4 hPa | - | - | - | - |
| 1777910841 | 19.44° C | 39% | 954.4 hPa | - | - | - | - |
| 1777900566 | 18.33° C | 42% | 954.2 hPa | - | - | - | - |
| 1777898091 | 17.78° C | 40% | 954 hPa | - | - | - | - |
| 1777897863 | 17.78° C | 40% | 954 hPa | - | - | - | - |
| 1777896962 | 17.78° C | 42% | 954 hPa | - | - | - | - |
| 1777896061 | 17.78° C | 41% | 954 hPa | - | - | - | - |
| 1777895160 | 17.78° C | 41% | 954 hPa | - | - | - | - |
| 1777893358 | 17.78° C | 41% | 953.7 hPa | - | - | - | - |
| 1777892457 | 17.78° C | 41% | 953.5 hPa | - | - | - | - |
| 1777891557 | 17.78° C | 40% | 953.5 hPa | - | - | - | - |
| 1777890656 | 18.33° C | 40% | 953.5 hPa | - | - | - | - |
| 1777889755 | 17.78° C | 40% | 953.5 hPa | - | - | - | - |
| 1777888854 | 18.33° C | 39% | 953.3 hPa | - | - | - | - |
| 1777887953 | 17.78° C | 41% | 953.6 hPa | - | - | - | - |
| 1777887048 | 17.78° C | 40% | 953.5 hPa | - | - | - | - |
| 1777886148 | 18.33° C | 39% | 953.6 hPa | - | - | - | - |
| 1777885247 | 18.33° C | 38% | 953.6 hPa | - | - | - | - |
| 1777884346 | 18.33° C | 39% | 953.5 hPa | - | - | - | - |
* Rain since midnight (hover to see other rain measurements)
** Current wind speed in m/s (hover to see current wind gust speed)